createdAt,value
2018-07-08T00:01:06.219Z,49.91
2018-07-08T00:04:30.787Z,49.89
2018-07-08T00:07:56.427Z,50.64
2018-07-08T00:11:21.011Z,50.15
2018-07-08T00:14:45.459Z,50.44
2018-07-08T00:18:09.997Z,51.11
2018-07-08T00:21:34.452Z,52.33
2018-07-08T00:24:58.974Z,53.99
2018-07-08T00:28:23.478Z,53.53
2018-07-08T00:31:47.991Z,54.56
2018-07-08T00:35:12.513Z,54.19
2018-07-08T00:38:37.050Z,54.57
2018-07-08T00:42:01.302Z,54.07
2018-07-08T00:45:25.814Z,54.35
2018-07-08T00:48:50.351Z,55.28
2018-07-08T00:52:14.883Z,55.12
2018-07-08T00:55:39.452Z,55.50
2018-07-08T00:59:03.960Z,56.30
2018-07-08T01:02:28.469Z,56.20
2018-07-08T01:05:53.066Z,56.42
2018-07-08T01:09:17.569Z,55.79
2018-07-08T01:12:42.131Z,56.55
2018-07-08T01:16:06.803Z,57.05
2018-07-08T01:19:32.490Z,56.45
2018-07-08T01:22:57.019Z,57.37
2018-07-08T01:26:21.619Z,57.04
2018-07-08T01:29:46.131Z,56.67
2018-07-08T01:33:10.633Z,57.21
2018-07-08T01:36:35.111Z,57.41
2018-07-08T01:39:59.654Z,57.00
2018-07-08T01:43:24.123Z,56.52
2018-07-08T01:46:48.627Z,56.68
2018-07-08T01:50:13.169Z,56.90
2018-07-08T01:53:37.696Z,58.05
2018-07-08T01:57:02.269Z,58.51
2018-07-08T02:00:26.861Z,58.97
2018-07-08T02:03:52.697Z,58.81
2018-07-08T02:07:17.492Z,59.63
2018-07-08T02:10:42.052Z,59.41
2018-07-08T02:14:06.520Z,59.88
2018-07-08T02:17:31.042Z,60.01
2018-07-08T02:20:55.500Z,60.05
2018-07-08T02:24:20.439Z,60.45
2018-07-08T02:27:44.857Z,59.98
2018-07-08T02:31:09.583Z,60.90
2018-07-08T02:34:34.179Z,61.15
2018-07-08T02:37:59.978Z,60.74
2018-07-08T02:41:24.392Z,61.64
2018-07-08T02:44:49.118Z,61.98
2018-07-08T02:48:13.604Z,62.58
2018-07-08T02:51:38.054Z,62.10
2018-07-08T02:55:02.456Z,63.02
2018-07-08T02:58:26.985Z,63.33
2018-07-08T03:01:51.386Z,62.98
2018-07-08T03:05:15.808Z,63.58
2018-07-08T03:08:40.294Z,63.10
2018-07-08T03:12:04.760Z,63.03
2018-07-08T03:15:29.163Z,62.57
2018-07-08T03:18:53.678Z,62.70
2018-07-08T03:22:18.124Z,62.40
2018-07-08T03:25:42.517Z,63.20
2018-07-08T03:29:07.009Z,63.22
2018-07-08T03:32:31.398Z,63.19
2018-07-08T03:35:55.863Z,63.46
2018-07-08T03:39:20.302Z,62.95
2018-07-08T03:42:44.788Z,63.47
2018-07-08T03:46:09.275Z,62.57
2018-07-08T03:49:33.727Z,63.12
2018-07-08T03:52:58.197Z,63.56
2018-07-08T03:56:22.736Z,62.98
2018-07-08T03:59:47.153Z,63.17
2018-07-08T04:03:11.610Z,62.76
2018-07-08T04:06:36.646Z,62.73
2018-07-08T04:10:01.106Z,63.32
2018-07-08T04:13:25.583Z,63.81
2018-07-08T04:16:50.091Z,62.18
2018-07-08T04:20:14.551Z,62.96
2018-07-08T04:23:39.037Z,63.22
2018-07-08T04:27:03.639Z,63.15
2018-07-08T04:30:28.618Z,63.57
2018-07-08T04:33:53.159Z,62.77
2018-07-08T04:37:17.694Z,63.38
2018-07-08T04:40:42.179Z,63.54
2018-07-08T04:44:06.310Z,63.70
2018-07-08T04:47:30.916Z,62.94
2018-07-08T04:50:55.379Z,62.63
2018-07-08T04:54:19.892Z,62.22
2018-07-08T04:57:44.401Z,62.50
2018-07-08T05:01:08.922Z,61.93
2018-07-08T05:04:33.446Z,62.12
2018-07-08T05:07:57.892Z,62.13
2018-07-08T05:11:23.052Z,62.00
2018-07-08T05:15:02.487Z,61.55
2018-07-08T05:18:28.572Z,61.55
2018-07-08T05:21:53.663Z,61.44
2018-07-08T05:25:20.054Z,60.62
2018-07-08T05:28:46.309Z,60.73
2018-07-08T05:32:11.740Z,61.13
2018-07-08T05:35:36.783Z,60.55
2018-07-08T05:39:01.515Z,60.72
2018-07-08T05:42:27.173Z,60.59
2018-07-08T05:45:52.045Z,61.21
2018-07-08T05:49:17.837Z,59.96
2018-07-08T05:52:42.967Z,59.40
2018-07-08T05:56:09.440Z,60.36
2018-07-08T05:59:34.859Z,59.89
2018-07-08T06:03:01.290Z,58.72
2018-07-08T06:06:27.365Z,58.92
2018-07-08T06:09:53.464Z,58.35
2018-07-08T06:13:19.008Z,57.88
2018-07-08T06:16:44.449Z,58.91
2018-07-08T06:20:11.080Z,58.04
2018-07-08T06:23:35.754Z,57.68
2018-07-08T06:27:01.793Z,57.69
2018-07-08T06:30:27.357Z,57.71
2018-07-08T06:33:55.487Z,56.86
2018-07-08T06:37:19.907Z,56.60
2018-07-08T06:40:56.400Z,57.23
2018-07-08T06:44:22.198Z,56.42
2018-07-08T06:47:46.870Z,56.87
2018-07-08T06:51:11.473Z,56.37
2018-07-08T06:54:37.530Z,56.53
2018-07-08T06:58:02.008Z,54.79
2018-07-08T07:01:26.563Z,55.33
2018-07-08T07:04:50.962Z,54.59
2018-07-08T07:08:16.141Z,54.26
2018-07-08T07:11:41.021Z,54.24
2018-07-08T07:15:05.637Z,53.54
2018-07-08T07:18:30.114Z,54.67
2018-07-08T07:21:54.691Z,53.34
2018-07-08T07:25:19.128Z,52.47
2018-07-08T07:28:43.566Z,53.27
2018-07-08T07:32:10.655Z,53.21
2018-07-08T07:35:36.323Z,52.01
2018-07-08T07:39:00.854Z,50.08
2018-07-08T07:42:25.336Z,51.09
2018-07-08T07:45:50.375Z,49.41
2018-07-08T07:49:14.957Z,49.51
2018-07-08T07:52:39.462Z,49.24
2018-07-08T07:56:04.164Z,49.34
2018-07-08T07:59:28.692Z,48.71
2018-07-08T08:02:53.158Z,48.07
2018-07-08T08:06:17.691Z,48.80
2018-07-08T08:09:42.191Z,47.95
2018-07-08T08:13:06.689Z,48.61
2018-07-08T08:16:31.166Z,45.83
2018-07-08T08:19:55.637Z,47.54
2018-07-08T08:23:20.124Z,47.57
2018-07-08T08:26:44.715Z,45.96
2018-07-08T08:30:09.173Z,46.19
2018-07-08T08:33:33.674Z,45.65
2018-07-08T08:36:58.153Z,46.43
2018-07-08T08:40:24.691Z,44.54
2018-07-08T08:43:49.172Z,44.81
2018-07-08T08:47:14.046Z,43.25
2018-07-08T08:50:38.600Z,42.39
2018-07-08T08:54:03.110Z,41.87
2018-07-08T08:57:27.706Z,43.99
2018-07-08T09:00:53.962Z,42.06
2018-07-08T09:04:24.141Z,41.78
2018-07-08T09:07:48.622Z,42.25
2018-07-08T09:11:13.125Z,42.34
2018-07-08T09:14:38.038Z,41.29
2018-07-08T09:18:02.574Z,41.82
2018-07-08T09:21:27.222Z,41.44
2018-07-08T09:24:52.271Z,40.60
2018-07-08T09:28:17.647Z,39.53
2018-07-08T09:31:42.288Z,39.40
2018-07-08T09:35:06.744Z,39.67
2018-07-08T09:38:31.349Z,40.29
2018-07-08T09:41:57.490Z,39.00
2018-07-08T09:45:21.892Z,39.57
2018-07-08T09:48:46.310Z,36.99
2018-07-08T09:52:10.791Z,37.61
2018-07-08T09:55:35.181Z,37.53
2018-07-08T09:58:59.890Z,38.18
2018-07-08T10:02:24.372Z,35.57
2018-07-08T10:05:48.852Z,36.64
2018-07-08T10:09:14.757Z,34.71
2018-07-08T10:12:39.290Z,35.31
2018-07-08T10:16:03.725Z,35.38
2018-07-08T10:19:28.527Z,33.80
2018-07-08T10:22:52.922Z,33.92
2018-07-08T10:26:17.377Z,34.02
2018-07-08T10:29:41.849Z,32.68
2018-07-08T10:33:06.364Z,33.50
2018-07-08T10:36:30.883Z,31.99
2018-07-08T10:39:55.335Z,32.57
2018-07-08T10:43:19.846Z,31.85
2018-07-08T10:46:44.436Z,32.71
2018-07-08T10:50:08.996Z,31.49
2018-07-08T10:53:33.521Z,30.66
2018-07-08T10:56:58.121Z,29.89
2018-07-08T11:00:22.638Z,29.88
2018-07-08T11:03:48.251Z,29.30
2018-07-08T11:07:12.631Z,28.92
2018-07-08T11:10:37.100Z,29.32
2018-07-08T11:14:01.585Z,28.82
2018-07-08T11:17:26.142Z,29.92
2018-07-08T11:20:50.647Z,29.04
2018-07-08T11:24:15.128Z,27.31
2018-07-08T11:27:39.655Z,28.46
2018-07-08T11:31:04.138Z,28.05
2018-07-08T11:34:28.594Z,29.06
2018-07-08T11:37:53.124Z,28.05
2018-07-08T11:41:17.672Z,26.16
2018-07-08T11:44:42.277Z,28.21
2018-07-08T11:48:06.965Z,27.57
2018-07-08T11:51:31.531Z,26.41
2018-07-08T11:54:55.977Z,25.15
2018-07-08T11:58:20.539Z,25.46
2018-07-08T12:01:45.062Z,26.40
2018-07-08T12:05:09.584Z,26.63
2018-07-08T12:08:34.118Z,25.04
2018-07-08T12:11:58.624Z,24.65
2018-07-08T12:15:23.106Z,24.67
2018-07-08T12:18:47.639Z,24.24
2018-07-08T12:22:12.279Z,24.32
2018-07-08T12:25:36.726Z,24.18
2018-07-08T12:29:01.260Z,23.39
2018-07-08T12:32:25.831Z,21.35
2018-07-08T12:35:50.386Z,20.54
2018-07-08T12:39:15.328Z,20.24
2018-07-08T12:42:39.957Z,18.72
2018-07-08T12:46:04.875Z,18.14
2018-07-08T12:49:29.426Z,16.58
2018-07-08T12:52:53.911Z,15.34
2018-07-08T12:56:18.380Z,15.18
2018-07-08T12:59:42.903Z,13.63
2018-07-08T13:03:09.829Z,12.86
2018-07-08T13:06:34.357Z,13.43
2018-07-08T13:09:59.204Z,13.75
2018-07-08T13:13:25.493Z,12.66
2018-07-08T13:16:50.137Z,13.00
2018-07-08T13:20:14.668Z,12.04
2018-07-08T13:23:39.906Z,13.51
2018-07-08T13:27:04.510Z,13.32
2018-07-08T13:30:29.057Z,12.47
2018-07-08T13:33:53.612Z,13.43
2018-07-08T13:37:18.132Z,12.07
2018-07-08T13:40:42.704Z,12.02
2018-07-08T13:44:07.482Z,11.95
2018-07-08T13:47:32.074Z,12.75
2018-07-08T13:50:56.550Z,11.54
2018-07-08T13:54:21.086Z,12.69
2018-07-08T13:57:45.579Z,12.68
2018-07-08T14:01:10.125Z,13.27
2018-07-08T14:04:34.635Z,13.32
2018-07-08T14:07:59.078Z,13.14
2018-07-08T14:11:23.668Z,14.58
2018-07-08T14:14:48.178Z,13.18
2018-07-08T14:18:12.602Z,12.77
2018-07-08T14:21:37.135Z,13.81
2018-07-08T14:25:01.639Z,13.36
2018-07-08T14:28:26.221Z,12.91
2018-07-08T14:31:50.755Z,12.95
2018-07-08T14:35:18.060Z,13.68
2018-07-08T14:38:42.652Z,13.10
2018-07-08T14:42:07.352Z,12.16
2018-07-08T14:45:31.917Z,12.63
2018-07-08T14:48:56.412Z,12.15
2018-07-08T14:52:20.916Z,11.92
2018-07-08T14:55:45.692Z,11.63
2018-07-08T14:59:10.394Z,13.10
2018-07-08T15:02:35.355Z,12.50
2018-07-08T15:05:59.892Z,12.13
2018-07-08T15:09:26.665Z,11.59
2018-07-08T15:12:51.077Z,10.92
2018-07-08T15:16:15.587Z,10.73
2018-07-08T15:19:40.239Z,10.17
2018-07-08T15:23:04.843Z,10.63
2018-07-08T15:26:29.350Z,10.91
2018-07-08T15:29:54.107Z,11.87
2018-07-08T15:33:18.586Z,11.61
2018-07-08T15:36:43.020Z,10.92
2018-07-08T15:40:07.615Z,12.03
2018-07-08T15:43:33.132Z,10.15
2018-07-08T15:46:57.667Z,11.21
2018-07-08T15:50:22.059Z,11.34
2018-07-08T15:53:46.512Z,10.68
2018-07-08T15:57:10.969Z,11.10
2018-07-08T16:00:35.634Z,9.58
2018-07-08T16:04:00.161Z,10.41
2018-07-08T16:07:24.615Z,10.23
2018-07-08T16:10:49.112Z,10.68
2018-07-08T16:14:13.606Z,11.06
2018-07-08T16:17:38.134Z,10.54
2018-07-08T16:21:03.212Z,11.42
2018-07-08T16:24:27.748Z,11.41
2018-07-08T16:27:52.280Z,12.51
2018-07-08T16:31:16.765Z,13.13
2018-07-08T16:34:40.925Z,13.13
2018-07-08T16:38:06.164Z,14.70
2018-07-08T16:41:30.657Z,15.55
2018-07-08T16:44:55.781Z,15.15
2018-07-08T16:48:20.254Z,15.94
2018-07-08T16:51:44.793Z,17.25
2018-07-08T16:55:09.272Z,17.07
2018-07-08T16:58:33.801Z,16.36
2018-07-08T17:01:58.722Z,16.99
2018-07-08T17:05:23.253Z,17.74
2018-07-08T17:08:47.720Z,18.68
2018-07-08T17:12:12.126Z,18.08
2018-07-08T17:15:36.632Z,19.19
2018-07-08T17:19:01.174Z,20.05
2018-07-08T17:22:25.729Z,21.09
2018-07-08T17:25:50.751Z,21.18
2018-07-08T17:29:15.389Z,22.77
2018-07-08T17:32:39.964Z,23.44
2018-07-08T17:36:04.476Z,23.75
2018-07-08T17:39:28.989Z,24.47
2018-07-08T17:42:53.523Z,26.42
2018-07-08T17:46:21.557Z,26.94
2018-07-08T17:49:46.242Z,26.04
2018-07-08T17:53:12.046Z,28.34
2018-07-08T17:56:37.252Z,28.08
2018-07-08T18:00:01.852Z,29.76
2018-07-08T18:03:26.281Z,31.78
2018-07-08T18:06:51.816Z,34.27
2018-07-08T18:10:16.245Z,34.53
2018-07-08T18:13:40.807Z,35.04
2018-07-08T18:17:05.295Z,34.16
2018-07-08T18:20:29.771Z,36.78
2018-07-08T18:23:54.420Z,36.43
2018-07-08T18:27:19.267Z,38.70
2018-07-08T18:30:43.813Z,37.33
2018-07-08T18:34:08.422Z,36.99
2018-07-08T18:37:33.008Z,37.25
2018-07-08T18:40:57.465Z,37.62
2018-07-08T18:44:21.991Z,37.05
2018-07-08T18:47:46.422Z,36.58
2018-07-08T18:51:10.921Z,39.85
2018-07-08T18:54:35.482Z,37.74
2018-07-08T18:58:00.271Z,38.50
2018-07-08T19:01:24.720Z,38.17
2018-07-08T19:04:49.329Z,38.01
2018-07-08T19:08:13.960Z,37.19
2018-07-08T19:11:38.489Z,38.16
2018-07-08T19:15:02.940Z,38.22
2018-07-08T19:18:27.407Z,39.32
2018-07-08T19:21:51.916Z,38.25
2018-07-08T19:25:16.412Z,39.12
2018-07-08T19:28:40.977Z,37.56
2018-07-08T19:32:05.750Z,40.03
2018-07-08T19:35:31.107Z,39.79
2018-07-08T19:38:55.755Z,38.55
2018-07-08T19:42:20.229Z,40.87
2018-07-08T19:45:44.833Z,39.46
2018-07-08T19:49:09.261Z,40.20
2018-07-08T19:52:33.661Z,39.83
2018-07-08T19:55:58.950Z,41.47
2018-07-08T19:59:24.416Z,41.44
2018-07-08T20:02:48.857Z,41.37
2018-07-08T20:06:13.308Z,39.83
2018-07-08T20:09:37.761Z,40.98
2018-07-08T20:13:02.249Z,41.71
2018-07-08T20:16:26.856Z,42.69
2018-07-08T20:19:51.375Z,42.95
2018-07-08T20:23:15.862Z,43.11
2018-07-08T20:26:40.400Z,42.86
2018-07-08T20:30:05.029Z,43.80
2018-07-08T20:33:32.862Z,43.91
2018-07-08T20:36:58.155Z,43.79
2018-07-08T20:40:22.695Z,43.90
2018-07-08T20:43:47.206Z,45.50
2018-07-08T20:47:11.685Z,44.65
2018-07-08T20:50:36.275Z,44.89
2018-07-08T20:54:00.742Z,45.61
2018-07-08T20:57:25.210Z,45.53
2018-07-08T21:00:49.755Z,45.75
2018-07-08T21:04:14.218Z,46.66
2018-07-08T21:07:38.719Z,46.40
2018-07-08T21:11:03.374Z,47.28
2018-07-08T21:14:27.970Z,46.65
2018-07-08T21:17:52.451Z,47.56
2018-07-08T21:21:16.944Z,47.85
2018-07-08T21:24:41.557Z,47.86
2018-07-08T21:28:21.929Z,48.27
2018-07-08T21:31:46.714Z,48.44
2018-07-08T21:35:11.198Z,47.91
2018-07-08T21:38:35.927Z,49.34
2018-07-08T21:42:00.437Z,48.56
2018-07-08T21:45:25.110Z,49.30
2018-07-08T21:48:49.586Z,49.09
2018-07-08T21:52:14.016Z,49.58
2018-07-08T21:55:38.476Z,48.58
2018-07-08T21:59:02.928Z,48.68
2018-07-08T22:02:27.425Z,49.14
2018-07-08T22:05:51.894Z,50.73
2018-07-08T22:09:16.379Z,50.58
2018-07-08T22:12:40.822Z,49.63
2018-07-08T22:16:05.508Z,51.10
2018-07-08T22:19:29.960Z,50.76
2018-07-08T22:22:54.888Z,51.41
2018-07-08T22:26:19.327Z,51.41
2018-07-08T22:29:43.797Z,51.52
2018-07-08T22:33:08.287Z,51.53
2018-07-08T22:36:33.002Z,52.55
2018-07-08T22:39:57.526Z,52.14
2018-07-08T22:43:22.203Z,52.81
2018-07-08T22:46:46.743Z,52.74
2018-07-08T22:50:11.234Z,52.87
2018-07-08T22:53:35.734Z,53.82
2018-07-08T22:57:00.169Z,52.28
2018-07-08T23:00:41.854Z,52.18
2018-07-08T23:04:06.855Z,53.63
2018-07-08T23:07:31.369Z,54.12
2018-07-08T23:10:55.897Z,53.65
2018-07-08T23:14:20.366Z,54.55
2018-07-08T23:17:46.016Z,53.87
2018-07-08T23:21:10.515Z,54.64
2018-07-08T23:24:35.047Z,53.99
2018-07-08T23:28:00.263Z,55.41
2018-07-08T23:31:24.750Z,55.17
2018-07-08T23:34:49.232Z,56.26
2018-07-08T23:38:13.808Z,55.62
2018-07-08T23:41:38.344Z,55.92
2018-07-08T23:45:02.807Z,55.22
2018-07-08T23:48:30.196Z,56.45
2018-07-08T23:51:54.593Z,56.44
2018-07-08T23:55:19.019Z,57.69
2018-07-08T23:58:44.537Z,57.30
